sensor_id;sensor_type;location;lat;lon;timestamp;P1;durP1;ratioP1;P2;durP2;ratioP2
10633;SDS011;5365;51.640;8.106;2022-07-29T00:01:14;2.35;;;1.60;;
10633;SDS011;5365;51.640;8.106;2022-07-29T00:03:37;3.40;;;1.48;;
10633;SDS011;5365;51.640;8.106;2022-07-29T00:05:59;1.42;;;1.23;;
10633;SDS011;5365;51.640;8.106;2022-07-29T00:08:21;2.72;;;1.52;;
10633;SDS011;5365;51.640;8.106;2022-07-29T00:10:42;1.90;;;1.60;;
10633;SDS011;5365;51.640;8.106;2022-07-29T00:13:04;2.60;;;1.15;;
10633;SDS011;5365;51.640;8.106;2022-07-29T00:15:26;2.22;;;1.70;;
10633;SDS011;5365;51.640;8.106;2022-07-29T00:17:48;2.03;;;1.67;;
10633;SDS011;5365;51.640;8.106;2022-07-29T00:20:10;2.75;;;1.60;;
10633;SDS011;5365;51.640;8.106;2022-07-29T00:22:32;4.00;;;1.45;;
10633;SDS011;5365;51.640;8.106;2022-07-29T00:24:54;1.70;;;1.60;;
10633;SDS011;5365;51.640;8.106;2022-07-29T00:27:16;2.45;;;1.52;;
10633;SDS011;5365;51.640;8.106;2022-07-29T00:29:38;4.32;;;1.58;;
10633;SDS011;5365;51.640;8.106;2022-07-29T00:32:00;4.13;;;1.50;;
10633;SDS011;5365;51.640;8.106;2022-07-29T00:34:23;1.52;;;1.50;;
10633;SDS011;5365;51.640;8.106;2022-07-29T00:37:04;3.60;;;2.13;;
10633;SDS011;5365;51.640;8.106;2022-07-29T00:39:25;1.95;;;1.52;;
10633;SDS011;5365;51.640;8.106;2022-07-29T00:41:48;2.35;;;1.45;;
10633;SDS011;5365;51.640;8.106;2022-07-29T00:44:10;1.60;;;1.50;;
10633;SDS011;5365;51.640;8.106;2022-07-29T00:46:32;1.73;;;1.60;;
10633;SDS011;5365;51.640;8.106;2022-07-29T00:48:53;2.15;;;1.40;;
10633;SDS011;5365;51.640;8.106;2022-07-29T00:51:15;2.13;;;1.45;;
10633;SDS011;5365;51.640;8.106;2022-07-29T00:53:37;1.52;;;1.40;;
10633;SDS011;5365;51.640;8.106;2022-07-29T00:55:59;1.80;;;1.35;;
10633;SDS011;5365;51.640;8.106;2022-07-29T00:58:21;1.58;;;1.45;;
10633;SDS011;5365;51.640;8.106;2022-07-29T01:00:44;3.15;;;1.70;;
10633;SDS011;5365;51.640;8.106;2022-07-29T01:03:06;3.88;;;1.63;;
10633;SDS011;5365;51.640;8.106;2022-07-29T01:05:29;1.95;;;1.75;;
10633;SDS011;5365;51.640;8.106;2022-07-29T01:07:52;1.50;;;1.40;;
10633;SDS011;5365;51.640;8.106;2022-07-29T01:10:15;2.10;;;1.30;;
10633;SDS011;5365;51.640;8.106;2022-07-29T01:12:38;2.22;;;1.40;;
10633;SDS011;5365;51.640;8.106;2022-07-29T01:15:04;3.15;;;1.60;;
10633;SDS011;5365;51.640;8.106;2022-07-29T01:23:08;1.50;;;1.45;;
10633;SDS011;5365;51.640;8.106;2022-07-29T01:31:05;3.13;;;1.70;;
10633;SDS011;5365;51.640;8.106;2022-07-29T01:33:29;2.95;;;1.45;;
10633;SDS011;5365;51.640;8.106;2022-07-29T01:36:11;2.65;;;1.70;;
10633;SDS011;5365;51.640;8.106;2022-07-29T01:38:35;3.55;;;1.60;;
10633;SDS011;5365;51.640;8.106;2022-07-29T01:41:05;1.60;;;1.33;;
10633;SDS011;5365;51.640;8.106;2022-07-29T01:43:31;1.40;;;1.30;;
10633;SDS011;5365;51.640;8.106;2022-07-29T01:45:59;1.77;;;1.20;;
10633;SDS011;5365;51.640;8.106;2022-07-29T01:48:24;2.05;;;1.65;;
10633;SDS011;5365;51.640;8.106;2022-07-29T01:50:51;2.00;;;1.30;;
10633;SDS011;5365;51.640;8.106;2022-07-29T01:53:27;1.58;;;1.23;;
10633;SDS011;5365;51.640;8.106;2022-07-29T01:55:52;1.80;;;1.45;;
10633;SDS011;5365;51.640;8.106;2022-07-29T01:58:14;2.33;;;1.50;;
10633;SDS011;5365;51.640;8.106;2022-07-29T02:00:39;4.90;;;1.70;;
10633;SDS011;5365;51.640;8.106;2022-07-29T02:03:02;2.33;;;1.60;;
10633;SDS011;5365;51.640;8.106;2022-07-29T02:05:27;1.53;;;1.23;;
10633;SDS011;5365;51.640;8.106;2022-07-29T02:07:50;2.87;;;1.40;;
10633;SDS011;5365;51.640;8.106;2022-07-29T02:10:13;2.00;;;1.50;;
10633;SDS011;5365;51.640;8.106;2022-07-29T02:12:36;2.17;;;1.40;;
10633;SDS011;5365;51.640;8.106;2022-07-29T02:15:00;1.43;;;1.33;;
10633;SDS011;5365;51.640;8.106;2022-07-29T02:17:25;2.57;;;1.60;;
10633;SDS011;5365;51.640;8.106;2022-07-29T02:19:49;1.50;;;1.50;;
10633;SDS011;5365;51.640;8.106;2022-07-29T02:22:11;1.90;;;1.60;;
10633;SDS011;5365;51.640;8.106;2022-07-29T02:24:34;3.13;;;1.70;;
10633;SDS011;5365;51.640;8.106;2022-07-29T02:26:57;5.30;;;1.60;;
10633;SDS011;5365;51.640;8.106;2022-07-29T02:29:21;2.10;;;1.57;;
10633;SDS011;5365;51.640;8.106;2022-07-29T02:31:44;1.70;;;1.50;;
10633;SDS011;5365;51.640;8.106;2022-07-29T02:34:08;1.60;;;1.60;;
10633;SDS011;5365;51.640;8.106;2022-07-29T02:36:32;3.57;;;1.53;;
10633;SDS011;5365;51.640;8.106;2022-07-29T02:38:54;2.23;;;1.30;;
10633;SDS011;5365;51.640;8.106;2022-07-29T02:44:13;4.10;;;1.73;;
10633;SDS011;5365;51.640;8.106;2022-07-29T02:46:37;1.47;;;1.37;;
10633;SDS011;5365;51.640;8.106;2022-07-29T02:51:46;2.53;;;1.47;;
10633;SDS011;5365;51.640;8.106;2022-07-29T02:57:00;2.30;;;1.27;;
10633;SDS011;5365;51.640;8.106;2022-07-29T02:59:24;1.83;;;1.73;;
10633;SDS011;5365;51.640;8.106;2022-07-29T03:01:48;1.83;;;1.73;;
10633;SDS011;5365;51.640;8.106;2022-07-29T03:04:11;1.77;;;1.73;;
10633;SDS011;5365;51.640;8.106;2022-07-29T03:06:34;2.17;;;1.67;;
10633;SDS011;5365;51.640;8.106;2022-07-29T03:08:57;1.80;;;1.70;;
10633;SDS011;5365;51.640;8.106;2022-07-29T03:11:19;1.40;;;1.30;;
10633;SDS011;5365;51.640;8.106;2022-07-29T03:13:41;3.23;;;1.90;;
10633;SDS011;5365;51.640;8.106;2022-07-29T03:16:03;3.27;;;1.67;;
10633;SDS011;5365;51.640;8.106;2022-07-29T03:18:26;2.10;;;1.57;;
10633;SDS011;5365;51.640;8.106;2022-07-29T03:20:48;1.60;;;1.50;;
10633;SDS011;5365;51.640;8.106;2022-07-29T03:23:10;2.47;;;1.70;;
10633;SDS011;5365;51.640;8.106;2022-07-29T03:25:32;1.90;;;1.43;;
10633;SDS011;5365;51.640;8.106;2022-07-29T03:27:54;1.50;;;1.40;;
10633;SDS011;5365;51.640;8.106;2022-07-29T03:30:16;2.47;;;1.70;;
10633;SDS011;5365;51.640;8.106;2022-07-29T03:32:38;1.80;;;1.70;;
10633;SDS011;5365;51.640;8.106;2022-07-29T03:35:00;1.40;;;1.30;;
10633;SDS011;5365;51.640;8.106;2022-07-29T03:37:22;4.73;;;1.70;;
10633;SDS011;5365;51.640;8.106;2022-07-29T03:39:44;2.70;;;1.80;;
10633;SDS011;5365;51.640;8.106;2022-07-29T03:42:07;1.70;;;1.60;;
10633;SDS011;5365;51.640;8.106;2022-07-29T03:44:30;2.03;;;1.77;;
10633;SDS011;5365;51.640;8.106;2022-07-29T03:46:52;1.93;;;1.83;;
10633;SDS011;5365;51.640;8.106;2022-07-29T03:49:16;1.60;;;1.50;;
10633;SDS011;5365;51.640;8.106;2022-07-29T03:51:38;2.93;;;1.40;;
10633;SDS011;5365;51.640;8.106;2022-07-29T03:54:01;2.73;;;1.70;;
10633;SDS011;5365;51.640;8.106;2022-07-29T03:56:26;3.10;;;1.80;;
10633;SDS011;5365;51.640;8.106;2022-07-29T03:58:49;1.80;;;1.60;;
10633;SDS011;5365;51.640;8.106;2022-07-29T04:01:11;2.07;;;1.80;;
10633;SDS011;5365;51.640;8.106;2022-07-29T04:03:35;1.80;;;1.40;;
10633;SDS011;5365;51.640;8.106;2022-07-29T04:06:06;1.80;;;1.70;;
10633;SDS011;5365;51.640;8.106;2022-07-29T04:08:28;4.30;;;1.73;;
10633;SDS011;5365;51.640;8.106;2022-07-29T04:10:50;1.57;;;1.47;;
10633;SDS011;5365;51.640;8.106;2022-07-29T04:13:13;2.80;;;1.63;;
10633;SDS011;5365;51.640;8.106;2022-07-29T04:15:35;1.70;;;1.60;;
10633;SDS011;5365;51.640;8.106;2022-07-29T04:17:57;3.90;;;1.77;;
10633;SDS011;5365;51.640;8.106;2022-07-29T04:20:20;2.60;;;1.50;;
10633;SDS011;5365;51.640;8.106;2022-07-29T04:22:42;1.60;;;1.33;;
10633;SDS011;5365;51.640;8.106;2022-07-29T04:25:04;3.47;;;1.50;;
10633;SDS011;5365;51.640;8.106;2022-07-29T04:27:26;1.52;;;1.42;;
10633;SDS011;5365;51.640;8.106;2022-07-29T04:29:48;1.47;;;1.37;;
10633;SDS011;5365;51.640;8.106;2022-07-29T04:32:09;3.13;;;1.50;;
10633;SDS011;5365;51.640;8.106;2022-07-29T04:34:31;1.97;;;1.80;;
10633;SDS011;5365;51.640;8.106;2022-07-29T04:36:53;1.53;;;1.43;;
10633;SDS011;5365;51.640;8.106;2022-07-29T04:39:15;1.65;;;1.50;;
10633;SDS011;5365;51.640;8.106;2022-07-29T04:41:42;1.95;;;1.60;;
10633;SDS011;5365;51.640;8.106;2022-07-29T04:44:04;3.58;;;1.30;;
10633;SDS011;5365;51.640;8.106;2022-07-29T04:46:26;1.95;;;1.40;;
10633;SDS011;5365;51.640;8.106;2022-07-29T04:48:48;1.40;;;1.30;;
10633;SDS011;5365;51.640;8.106;2022-07-29T04:51:10;1.55;;;1.10;;
10633;SDS011;5365;51.640;8.106;2022-07-29T04:53:32;2.65;;;1.40;;
10633;SDS011;5365;51.640;8.106;2022-07-29T04:55:54;2.47;;;1.70;;
10633;SDS011;5365;51.640;8.106;2022-07-29T04:58:16;1.52;;;1.38;;
10633;SDS011;5365;51.640;8.106;2022-07-29T05:00:39;5.32;;;1.80;;
10633;SDS011;5365;51.640;8.106;2022-07-29T05:03:01;1.90;;;1.70;;
10633;SDS011;5365;51.640;8.106;2022-07-29T05:05:24;1.60;;;1.50;;
10633;SDS011;5365;51.640;8.106;2022-07-29T05:07:46;2.50;;;1.60;;
10633;SDS011;5365;51.640;8.106;2022-07-29T05:10:08;1.20;;;1.20;;
10633;SDS011;5365;51.640;8.106;2022-07-29T05:12:30;1.42;;;1.33;;
10633;SDS011;5365;51.640;8.106;2022-07-29T05:14:52;2.00;;;1.73;;
10633;SDS011;5365;51.640;8.106;2022-07-29T05:17:14;1.85;;;1.63;;
10633;SDS011;5365;51.640;8.106;2022-07-29T05:19:36;3.40;;;1.45;;
10633;SDS011;5365;51.640;8.106;2022-07-29T05:21:58;5.05;;;1.70;;
10633;SDS011;5365;51.640;8.106;2022-07-29T05:24:21;2.35;;;1.70;;
10633;SDS011;5365;51.640;8.106;2022-07-29T05:26:43;1.40;;;1.30;;
10633;SDS011;5365;51.640;8.106;2022-07-29T05:29:04;1.83;;;1.63;;
10633;SDS011;5365;51.640;8.106;2022-07-29T05:31:26;1.52;;;1.42;;
10633;SDS011;5365;51.640;8.106;2022-07-29T05:33:48;4.15;;;1.88;;
10633;SDS011;5365;51.640;8.106;2022-07-29T05:36:10;2.00;;;1.50;;
10633;SDS011;5365;51.640;8.106;2022-07-29T05:38:33;2.23;;;1.73;;
10633;SDS011;5365;51.640;8.106;2022-07-29T05:40:56;2.75;;;1.35;;
10633;SDS011;5365;51.640;8.106;2022-07-29T05:43:19;1.48;;;1.35;;
10633;SDS011;5365;51.640;8.106;2022-07-29T05:45:42;1.63;;;1.52;;
10633;SDS011;5365;51.640;8.106;2022-07-29T05:48:04;2.80;;;1.60;;
10633;SDS011;5365;51.640;8.106;2022-07-29T05:50:26;1.83;;;1.73;;
10633;SDS011;5365;51.640;8.106;2022-07-29T05:52:48;1.73;;;1.23;;
10633;SDS011;5365;51.640;8.106;2022-07-29T05:55:09;1.77;;;1.45;;
10633;SDS011;5365;51.640;8.106;2022-07-29T05:57:31;1.70;;;1.60;;
10633;SDS011;5365;51.640;8.106;2022-07-29T05:59:53;3.03;;;1.40;;
10633;SDS011;5365;51.640;8.106;2022-07-29T06:02:15;1.85;;;1.50;;
10633;SDS011;5365;51.640;8.106;2022-07-29T06:04:37;1.35;;;1.30;;
10633;SDS011;5365;51.640;8.106;2022-07-29T06:06:59;1.77;;;1.58;;
10633;SDS011;5365;51.640;8.106;2022-07-29T06:09:21;2.70;;;1.63;;
10633;SDS011;5365;51.640;8.106;2022-07-29T06:11:44;1.58;;;1.58;;
10633;SDS011;5365;51.640;8.106;2022-07-29T06:14:06;3.95;;;1.50;;
10633;SDS011;5365;51.640;8.106;2022-07-29T06:16:28;1.48;;;1.38;;
10633;SDS011;5365;51.640;8.106;2022-07-29T06:18:50;3.17;;;1.67;;
10633;SDS011;5365;51.640;8.106;2022-07-29T06:21:13;1.58;;;1.27;;
10633;SDS011;5365;51.640;8.106;2022-07-29T06:23:38;3.13;;;1.77;;
10633;SDS011;5365;51.640;8.106;2022-07-29T06:26:00;2.97;;;1.42;;
10633;SDS011;5365;51.640;8.106;2022-07-29T06:28:22;1.15;;;1.15;;
10633;SDS011;5365;51.640;8.106;2022-07-29T06:30:44;1.42;;;1.33;;
10633;SDS011;5365;51.640;8.106;2022-07-29T06:33:06;1.42;;;1.30;;
10633;SDS011;5365;51.640;8.106;2022-07-29T06:35:28;2.22;;;1.33;;
10633;SDS011;5365;51.640;8.106;2022-07-29T06:37:54;1.55;;;1.08;;
10633;SDS011;5365;51.640;8.106;2022-07-29T06:40:15;1.90;;;1.48;;
10633;SDS011;5365;51.640;8.106;2022-07-29T06:42:56;2.75;;;1.63;;
10633;SDS011;5365;51.640;8.106;2022-07-29T06:45:18;3.22;;;1.52;;
10633;SDS011;5365;51.640;8.106;2022-07-29T06:47:39;2.28;;;1.65;;
10633;SDS011;5365;51.640;8.106;2022-07-29T06:50:01;1.77;;;1.33;;
10633;SDS011;5365;51.640;8.106;2022-07-29T06:52:23;4.47;;;1.50;;
10633;SDS011;5365;51.640;8.106;2022-07-29T06:54:46;5.93;;;2.03;;
10633;SDS011;5365;51.640;8.106;2022-07-29T06:57:09;3.53;;;1.50;;
10633;SDS011;5365;51.640;8.106;2022-07-29T06:59:31;1.50;;;1.38;;
10633;SDS011;5365;51.640;8.106;2022-07-29T07:01:55;1.70;;;1.60;;
10633;SDS011;5365;51.640;8.106;2022-07-29T07:04:18;2.90;;;1.50;;
10633;SDS011;5365;51.640;8.106;2022-07-29T07:06:40;2.08;;;1.58;;
10633;SDS011;5365;51.640;8.106;2022-07-29T07:09:02;4.00;;;1.67;;
10633;SDS011;5365;51.640;8.106;2022-07-29T07:11:24;2.63;;;1.38;;
10633;SDS011;5365;51.640;8.106;2022-07-29T07:13:46;2.78;;;1.83;;
10633;SDS011;5365;51.640;8.106;2022-07-29T07:16:07;2.20;;;1.40;;
10633;SDS011;5365;51.640;8.106;2022-07-29T07:18:29;1.83;;;1.48;;
10633;SDS011;5365;51.640;8.106;2022-07-29T07:20:51;1.73;;;1.58;;
10633;SDS011;5365;51.640;8.106;2022-07-29T07:23:13;2.65;;;1.42;;
10633;SDS011;5365;51.640;8.106;2022-07-29T07:25:35;5.28;;;1.98;;
10633;SDS011;5365;51.640;8.106;2022-07-29T07:27:57;2.30;;;1.80;;
10633;SDS011;5365;51.640;8.106;2022-07-29T07:30:18;2.75;;;1.90;;
10633;SDS011;5365;51.640;8.106;2022-07-29T07:32:40;3.05;;;1.38;;
10633;SDS011;5365;51.640;8.106;2022-07-29T07:35:05;3.47;;;1.63;;
10633;SDS011;5365;51.640;8.106;2022-07-29T07:37:28;2.00;;;1.60;;
10633;SDS011;5365;51.640;8.106;2022-07-29T07:39:51;2.47;;;1.50;;
10633;SDS011;5365;51.640;8.106;2022-07-29T07:42:13;1.55;;;1.40;;
10633;SDS011;5365;51.640;8.106;2022-07-29T07:44:35;2.53;;;1.77;;
10633;SDS011;5365;51.640;8.106;2022-07-29T07:47:06;1.60;;;1.50;;
10633;SDS011;5365;51.640;8.106;2022-07-29T07:49:28;4.13;;;1.70;;
10633;SDS011;5365;51.640;8.106;2022-07-29T07:51:50;1.98;;;1.85;;
10633;SDS011;5365;51.640;8.106;2022-07-29T07:54:13;1.98;;;1.50;;
10633;SDS011;5365;51.640;8.106;2022-07-29T07:56:35;3.55;;;1.70;;
10633;SDS011;5365;51.640;8.106;2022-07-29T07:58:57;1.63;;;1.52;;
10633;SDS011;5365;51.640;8.106;2022-07-29T08:01:19;2.13;;;1.95;;
10633;SDS011;5365;51.640;8.106;2022-07-29T08:03:44;2.53;;;1.75;;
10633;SDS011;5365;51.640;8.106;2022-07-29T08:06:06;2.88;;;2.05;;
10633;SDS011;5365;51.640;8.106;2022-07-29T08:08:28;1.50;;;1.38;;
10633;SDS011;5365;51.640;8.106;2022-07-29T08:10:50;2.53;;;1.60;;
10633;SDS011;5365;51.640;8.106;2022-07-29T08:13:14;2.28;;;1.70;;
10633;SDS011;5365;51.640;8.106;2022-07-29T08:15:36;3.78;;;1.60;;
10633;SDS011;5365;51.640;8.106;2022-07-29T08:17:58;2.22;;;1.52;;
10633;SDS011;5365;51.640;8.106;2022-07-29T08:20:20;1.98;;;1.50;;
10633;SDS011;5365;51.640;8.106;2022-07-29T08:22:42;1.75;;;1.45;;
10633;SDS011;5365;51.640;8.106;2022-07-29T08:25:04;2.95;;;1.65;;
10633;SDS011;5365;51.640;8.106;2022-07-29T08:27:26;2.08;;;1.58;;
10633;SDS011;5365;51.640;8.106;2022-07-29T08:30:05;4.43;;;2.00;;
10633;SDS011;5365;51.640;8.106;2022-07-29T08:32:28;3.15;;;1.95;;
10633;SDS011;5365;51.640;8.106;2022-07-29T08:35:04;3.47;;;1.80;;
10633;SDS011;5365;51.640;8.106;2022-07-29T08:37:26;4.55;;;1.90;;
10633;SDS011;5365;51.640;8.106;2022-07-29T08:39:48;3.03;;;2.00;;
10633;SDS011;5365;51.640;8.106;2022-07-29T08:42:10;4.57;;;2.00;;
10633;SDS011;5365;51.640;8.106;2022-07-29T08:44:33;2.28;;;1.67;;
10633;SDS011;5365;51.640;8.106;2022-07-29T08:46:55;3.50;;;1.92;;
10633;SDS011;5365;51.640;8.106;2022-07-29T08:49:17;2.63;;;1.90;;
10633;SDS011;5365;51.640;8.106;2022-07-29T08:51:40;1.95;;;1.50;;
10633;SDS011;5365;51.640;8.106;2022-07-29T08:54:02;2.70;;;1.98;;
10633;SDS011;5365;51.640;8.106;2022-07-29T08:56:24;2.20;;;1.70;;
10633;SDS011;5365;51.640;8.106;2022-07-29T08:58:46;1.90;;;1.80;;
10633;SDS011;5365;51.640;8.106;2022-07-29T09:01:09;4.40;;;1.73;;
10633;SDS011;5365;51.640;8.106;2022-07-29T09:03:32;1.92;;;1.83;;
10633;SDS011;5365;51.640;8.106;2022-07-29T09:05:56;2.70;;;2.35;;
10633;SDS011;5365;51.640;8.106;2022-07-29T09:08:22;2.60;;;1.90;;
10633;SDS011;5365;51.640;8.106;2022-07-29T09:10:44;1.73;;;1.63;;
10633;SDS011;5365;51.640;8.106;2022-07-29T09:13:07;1.60;;;1.50;;
10633;SDS011;5365;51.640;8.106;2022-07-29T09:15:28;1.80;;;1.70;;
10633;SDS011;5365;51.640;8.106;2022-07-29T09:17:50;2.00;;;1.90;;
10633;SDS011;5365;51.640;8.106;2022-07-29T09:20:16;3.25;;;1.80;;
10633;SDS011;5365;51.640;8.106;2022-07-29T09:22:40;1.70;;;1.60;;
10633;SDS011;5365;51.640;8.106;2022-07-29T09:25:02;2.15;;;1.75;;
10633;SDS011;5365;51.640;8.106;2022-07-29T09:27:25;2.83;;;1.70;;
10633;SDS011;5365;51.640;8.106;2022-07-29T09:30:01;3.90;;;1.50;;
10633;SDS011;5365;51.640;8.106;2022-07-29T09:32:27;1.67;;;1.58;;
10633;SDS011;5365;51.640;8.106;2022-07-29T09:34:49;2.50;;;1.60;;
10633;SDS011;5365;51.640;8.106;2022-07-29T09:37:11;3.17;;;1.63;;
10633;SDS011;5365;51.640;8.106;2022-07-29T09:39:34;5.50;;;2.38;;
10633;SDS011;5365;51.640;8.106;2022-07-29T09:42:00;3.15;;;1.80;;
10633;SDS011;5365;51.640;8.106;2022-07-29T09:44:23;2.28;;;1.52;;
10633;SDS011;5365;51.640;8.106;2022-07-29T09:46:59;2.10;;;1.85;;
10633;SDS011;5365;51.640;8.106;2022-07-29T09:49:27;1.98;;;1.73;;
10633;SDS011;5365;51.640;8.106;2022-07-29T09:51:58;2.28;;;1.90;;
10633;SDS011;5365;51.640;8.106;2022-07-29T09:54:27;2.83;;;1.80;;
10633;SDS011;5365;51.640;8.106;2022-07-29T09:56:49;2.83;;;2.10;;
10633;SDS011;5365;51.640;8.106;2022-07-29T09:59:11;3.67;;;1.85;;
10633;SDS011;5365;51.640;8.106;2022-07-29T10:01:33;3.50;;;2.10;;
10633;SDS011;5365;51.640;8.106;2022-07-29T10:03:56;2.22;;;2.03;;
10633;SDS011;5365;51.640;8.106;2022-07-29T10:06:17;4.35;;;1.80;;
10633;SDS011;5365;51.640;8.106;2022-07-29T10:08:39;2.47;;;2.15;;
10633;SDS011;5365;51.640;8.106;2022-07-29T10:11:24;3.67;;;2.00;;
10633;SDS011;5365;51.640;8.106;2022-07-29T10:13:46;3.30;;;1.88;;
10633;SDS011;5365;51.640;8.106;2022-07-29T10:16:09;3.60;;;1.95;;
10633;SDS011;5365;51.640;8.106;2022-07-29T10:18:31;3.50;;;1.77;;
10633;SDS011;5365;51.640;8.106;2022-07-29T10:20:53;2.88;;;1.90;;
10633;SDS011;5365;51.640;8.106;2022-07-29T10:23:16;3.17;;;2.03;;
10633;SDS011;5365;51.640;8.106;2022-07-29T10:25:38;1.92;;;1.70;;
10633;SDS011;5365;51.640;8.106;2022-07-29T10:27:59;2.20;;;2.03;;
10633;SDS011;5365;51.640;8.106;2022-07-29T10:30:23;2.47;;;2.10;;
10633;SDS011;5365;51.640;8.106;2022-07-29T10:43:23;1.90;;;1.80;;
10633;SDS011;5365;51.640;8.106;2022-07-29T10:45:47;3.00;;;2.55;;
10633;SDS011;5365;51.640;8.106;2022-07-29T10:48:10;2.67;;;1.90;;
10633;SDS011;5365;51.640;8.106;2022-07-29T10:53:16;2.65;;;1.90;;
10633;SDS011;5365;51.640;8.106;2022-07-29T10:55:38;3.67;;;1.80;;
10633;SDS011;5365;51.640;8.106;2022-07-29T10:58:16;4.25;;;2.55;;
10633;SDS011;5365;51.640;8.106;2022-07-29T11:00:40;5.68;;;2.35;;
10633;SDS011;5365;51.640;8.106;2022-07-29T11:03:02;6.82;;;2.53;;
10633;SDS011;5365;51.640;8.106;2022-07-29T11:05:23;2.90;;;2.10;;
10633;SDS011;5365;51.640;8.106;2022-07-29T11:10:36;3.63;;;2.17;;
10633;SDS011;5365;51.640;8.106;2022-07-29T11:12:58;3.55;;;2.20;;
10633;SDS011;5365;51.640;8.106;2022-07-29T11:15:21;2.42;;;1.98;;
10633;SDS011;5365;51.640;8.106;2022-07-29T11:23:16;3.33;;;2.10;;
10633;SDS011;5365;51.640;8.106;2022-07-29T11:25:38;2.70;;;2.50;;
10633;SDS011;5365;51.640;8.106;2022-07-29T11:28:08;3.42;;;2.30;;
10633;SDS011;5365;51.640;8.106;2022-07-29T11:30:51;4.65;;;2.63;;
10633;SDS011;5365;51.640;8.106;2022-07-29T11:33:26;4.30;;;2.15;;
10633;SDS011;5365;51.640;8.106;2022-07-29T11:36:07;4.75;;;2.10;;
10633;SDS011;5365;51.640;8.106;2022-07-29T11:38:33;4.43;;;1.70;;
10633;SDS011;5365;51.640;8.106;2022-07-29T11:43:54;2.22;;;2.10;;
10633;SDS011;5365;51.640;8.106;2022-07-29T11:46:42;4.63;;;2.25;;
10633;SDS011;5365;51.640;8.106;2022-07-29T11:49:11;2.53;;;2.10;;
10633;SDS011;5365;51.640;8.106;2022-07-29T11:51:33;2.63;;;1.95;;
10633;SDS011;5365;51.640;8.106;2022-07-29T11:53:55;3.42;;;2.10;;
10633;SDS011;5365;51.640;8.106;2022-07-29T11:56:18;5.47;;;2.00;;
10633;SDS011;5365;51.640;8.106;2022-07-29T11:58:42;2.08;;;1.55;;
10633;SDS011;5365;51.640;8.106;2022-07-29T12:01:04;3.75;;;2.13;;
10633;SDS011;5365;51.640;8.106;2022-07-29T12:03:26;2.35;;;2.20;;
10633;SDS011;5365;51.640;8.106;2022-07-29T12:05:50;2.63;;;2.08;;
10633;SDS011;5365;51.640;8.106;2022-07-29T12:08:16;4.25;;;2.03;;
10633;SDS011;5365;51.640;8.106;2022-07-29T12:10:44;4.25;;;2.03;;
10633;SDS011;5365;51.640;8.106;2022-07-29T12:13:07;2.80;;;2.05;;
10633;SDS011;5365;51.640;8.106;2022-07-29T12:15:29;3.78;;;2.17;;
10633;SDS011;5365;51.640;8.106;2022-07-29T12:17:51;2.60;;;2.40;;
10633;SDS011;5365;51.640;8.106;2022-07-29T12:20:14;2.95;;;2.17;;
10633;SDS011;5365;51.640;8.106;2022-07-29T12:22:44;3.42;;;2.40;;
10633;SDS011;5365;51.640;8.106;2022-07-29T12:25:07;2.50;;;2.20;;
10633;SDS011;5365;51.640;8.106;2022-07-29T12:27:57;2.13;;;1.98;;
10633;SDS011;5365;51.640;8.106;2022-07-29T12:30:23;2.20;;;1.85;;
10633;SDS011;5365;51.640;8.106;2022-07-29T12:32:46;2.22;;;2.03;;
10633;SDS011;5365;51.640;8.106;2022-07-29T12:35:09;2.65;;;2.10;;
10633;SDS011;5365;51.640;8.106;2022-07-29T12:37:34;4.10;;;2.10;;
10633;SDS011;5365;51.640;8.106;2022-07-29T12:39:58;2.30;;;2.15;;
10633;SDS011;5365;51.640;8.106;2022-07-29T12:42:20;2.22;;;2.03;;
10633;SDS011;5365;51.640;8.106;2022-07-29T12:44:48;2.92;;;2.45;;
10633;SDS011;5365;51.640;8.106;2022-07-29T12:47:11;2.95;;;2.15;;
10633;SDS011;5365;51.640;8.106;2022-07-29T12:49:33;2.60;;;2.30;;
10633;SDS011;5365;51.640;8.106;2022-07-29T12:51:55;4.05;;;2.50;;
10633;SDS011;5365;51.640;8.106;2022-07-29T12:54:17;2.72;;;2.50;;
10633;SDS011;5365;51.640;8.106;2022-07-29T12:56:39;3.58;;;2.30;;
10633;SDS011;5365;51.640;8.106;2022-07-29T13:01:37;2.47;;;1.98;;
10633;SDS011;5365;51.640;8.106;2022-07-29T13:03:59;2.47;;;2.25;;
10633;SDS011;5365;51.640;8.106;2022-07-29T13:06:26;3.80;;;2.30;;
10633;SDS011;5365;51.640;8.106;2022-07-29T13:11:32;2.28;;;2.13;;
10633;SDS011;5365;51.640;8.106;2022-07-29T13:14:01;3.83;;;2.38;;
10633;SDS011;5365;51.640;8.106;2022-07-29T13:16:24;2.55;;;2.20;;
10633;SDS011;5365;51.640;8.106;2022-07-29T13:18:46;2.97;;;2.15;;
10633;SDS011;5365;51.640;8.106;2022-07-29T13:21:11;2.60;;;2.40;;
10633;SDS011;5365;51.640;8.106;2022-07-29T13:23:34;4.00;;;2.40;;
10633;SDS011;5365;51.640;8.106;2022-07-29T13:26:04;3.13;;;1.90;;
10633;SDS011;5365;51.640;8.106;2022-07-29T13:28:27;2.45;;;1.67;;
10633;SDS011;5365;51.640;8.106;2022-07-29T13:30:48;3.90;;;1.90;;
10633;SDS011;5365;51.640;8.106;2022-07-29T13:33:10;3.35;;;2.00;;
10633;SDS011;5365;51.640;8.106;2022-07-29T13:35:33;2.53;;;2.13;;
10633;SDS011;5365;51.640;8.106;2022-07-29T13:37:55;2.08;;;1.80;;
10633;SDS011;5365;51.640;8.106;2022-07-29T13:40:16;3.28;;;2.50;;
10633;SDS011;5365;51.640;8.106;2022-07-29T13:42:38;3.17;;;2.28;;
10633;SDS011;5365;51.640;8.106;2022-07-29T13:45:02;3.90;;;2.30;;
10633;SDS011;5365;51.640;8.106;2022-07-29T13:47:24;2.03;;;1.85;;
10633;SDS011;5365;51.640;8.106;2022-07-29T13:49:47;3.67;;;2.30;;
10633;SDS011;5365;51.640;8.106;2022-07-29T13:52:09;3.78;;;1.95;;
10633;SDS011;5365;51.640;8.106;2022-07-29T13:54:31;2.20;;;1.92;;
10633;SDS011;5365;51.640;8.106;2022-07-29T13:56:53;3.70;;;1.90;;
10633;SDS011;5365;51.640;8.106;2022-07-29T13:59:15;2.90;;;1.90;;
10633;SDS011;5365;51.640;8.106;2022-07-29T14:01:37;3.03;;;1.90;;
10633;SDS011;5365;51.640;8.106;2022-07-29T14:04:00;2.75;;;1.98;;
10633;SDS011;5365;51.640;8.106;2022-07-29T14:06:22;2.95;;;1.95;;
10633;SDS011;5365;51.640;8.106;2022-07-29T14:08:44;6.65;;;2.00;;
10633;SDS011;5365;51.640;8.106;2022-07-29T14:11:06;1.85;;;1.65;;
10633;SDS011;5365;51.640;8.106;2022-07-29T14:13:28;3.33;;;2.38;;
10633;SDS011;5365;51.640;8.106;2022-07-29T14:15:49;1.95;;;1.75;;
10633;SDS011;5365;51.640;8.106;2022-07-29T14:18:11;2.08;;;1.80;;
10633;SDS011;5365;51.640;8.106;2022-07-29T14:20:33;2.63;;;2.20;;
10633;SDS011;5365;51.640;8.106;2022-07-29T14:22:55;2.05;;;1.95;;
10633;SDS011;5365;51.640;8.106;2022-07-29T14:25:17;2.20;;;2.00;;
10633;SDS011;5365;51.640;8.106;2022-07-29T14:27:39;5.45;;;2.00;;
10633;SDS011;5365;51.640;8.106;2022-07-29T14:30:01;3.40;;;2.10;;
10633;SDS011;5365;51.640;8.106;2022-07-29T14:32:23;2.47;;;1.90;;
10633;SDS011;5365;51.640;8.106;2022-07-29T14:34:45;2.28;;;2.10;;
10633;SDS011;5365;51.640;8.106;2022-07-29T14:37:07;3.78;;;2.10;;
10633;SDS011;5365;51.640;8.106;2022-07-29T14:39:29;3.10;;;2.17;;
10633;SDS011;5365;51.640;8.106;2022-07-29T14:41:51;1.90;;;1.73;;
10633;SDS011;5365;51.640;8.106;2022-07-29T14:44:13;2.88;;;2.40;;
10633;SDS011;5365;51.640;8.106;2022-07-29T14:46:35;2.28;;;2.08;;
10633;SDS011;5365;51.640;8.106;2022-07-29T14:48:57;3.30;;;2.30;;
10633;SDS011;5365;51.640;8.106;2022-07-29T14:51:18;2.03;;;1.90;;
10633;SDS011;5365;51.640;8.106;2022-07-29T14:53:40;2.85;;;2.10;;
10633;SDS011;5365;51.640;8.106;2022-07-29T14:56:02;2.22;;;2.13;;
10633;SDS011;5365;51.640;8.106;2022-07-29T14:58:35;2.92;;;2.17;;
10633;SDS011;5365;51.640;8.106;2022-07-29T15:00:57;2.17;;;2.08;;
10633;SDS011;5365;51.640;8.106;2022-07-29T15:03:19;5.75;;;2.30;;
10633;SDS011;5365;51.640;8.106;2022-07-29T15:05:41;2.30;;;2.00;;
10633;SDS011;5365;51.640;8.106;2022-07-29T15:08:03;3.10;;;2.45;;
10633;SDS011;5365;51.640;8.106;2022-07-29T15:10:25;2.88;;;2.15;;
10633;SDS011;5365;51.640;8.106;2022-07-29T15:12:50;4.35;;;2.40;;
10633;SDS011;5365;51.640;8.106;2022-07-29T15:15:12;6.07;;;2.40;;
10633;SDS011;5365;51.640;8.106;2022-07-29T15:17:34;2.50;;;2.30;;
10633;SDS011;5365;51.640;8.106;2022-07-29T15:19:56;2.38;;;2.17;;
10633;SDS011;5365;51.640;8.106;2022-07-29T15:22:17;2.67;;;2.10;;
10633;SDS011;5365;51.640;8.106;2022-07-29T15:24:39;6.50;;;2.47;;
10633;SDS011;5365;51.640;8.106;2022-07-29T15:27:01;6.32;;;5.13;;